Terminal Aerodrome Forecast
Issued by NWS Duluth, MN

Home | Current Version | Previous Version | Text Only | Print | Product List | Glossary On
Versions: 1 2 3 4 5 6 7 8 9 10 11 12 13 14 15 16 17 18 19 20
914
FTUS43 KDLH 140528
TAFDLH
TAF
KDLH 140528Z 1406/1506 14005KT P6SM -RA BKN045 OVC070
     FM140900 09004KT 3SM -RA BR SCT005 OVC025
     FM141400 09006KT 4SM -RA BR OVC015
     FM142000 10005KT P6SM SCT015 BKN050
     FM150200 09003KT 6SM BR SCT050=

USA.gov is the U.S. government's official web portal to all federal, state and local government web resources and services.